createdAt,value
2023-04-18T00:01:42.882Z,55.60
2023-04-18T00:04:09.523Z,55.70
2023-04-18T00:06:36.136Z,55.60
2023-04-18T00:09:02.654Z,56.00
2023-04-18T00:11:29.167Z,54.90
2023-04-18T00:13:55.632Z,55.30
2023-04-18T00:16:22.146Z,55.30
2023-04-18T00:18:48.633Z,55.30
2023-04-18T00:21:15.118Z,55.40
2023-04-18T00:23:41.599Z,55.10
2023-04-18T00:26:08.076Z,55.20
2023-04-18T00:28:34.545Z,55.40
2023-04-18T00:31:01.039Z,55.40
2023-04-18T00:33:27.537Z,55.30
2023-04-18T00:35:54.009Z,55.40
2023-04-18T00:38:20.473Z,55.40
2023-04-18T00:40:46.933Z,54.30
2023-04-18T00:43:13.430Z,55.10
2023-04-18T00:45:39.925Z,54.60
2023-04-18T00:48:06.421Z,54.70
2023-04-18T00:50:32.949Z,54.90
2023-04-18T00:52:59.415Z,54.70
2023-04-18T00:55:25.888Z,54.10
2023-04-18T00:57:52.372Z,54.40
2023-04-18T01:00:18.836Z,54.30
2023-04-18T01:02:45.440Z,54.10
2023-04-18T01:05:11.986Z,54.10
2023-04-18T01:07:38.451Z,53.90
2023-04-18T01:10:04.978Z,54.20
2023-04-18T01:12:31.453Z,54.20
2023-04-18T01:14:57.919Z,53.90
2023-04-18T01:17:24.421Z,54.70
2023-04-18T01:19:51.063Z,54.00
2023-04-18T01:22:17.589Z,54.00
2023-04-18T01:24:44.068Z,54.40
2023-04-18T01:27:10.541Z,53.80
2023-04-18T01:29:38.910Z,54.00
2023-04-18T01:32:05.493Z,54.30
2023-04-18T01:34:31.954Z,54.00
2023-04-18T01:36:58.429Z,54.80
2023-04-18T01:39:24.885Z,53.90
2023-04-18T01:41:51.355Z,53.60
2023-04-18T01:44:17.821Z,54.10
2023-04-18T01:46:44.332Z,53.90
2023-04-18T01:49:10.814Z,54.00
2023-04-18T01:51:37.277Z,54.30
2023-04-18T01:54:03.729Z,54.40
2023-04-18T01:56:30.184Z,54.40
2023-04-18T01:58:56.639Z,53.60
2023-04-18T02:01:23.210Z,53.50
2023-04-18T02:03:49.957Z,53.70
2023-04-18T02:06:20.998Z,53.70
2023-04-18T02:08:47.454Z,54.20
2023-04-18T02:11:13.904Z,54.30
2023-04-18T02:13:40.377Z,54.20
2023-04-18T02:16:06.867Z,53.50
2023-04-18T02:18:33.355Z,53.40
2023-04-18T02:20:59.809Z,53.90
2023-04-18T02:23:26.287Z,53.40
2023-04-18T02:25:52.755Z,53.30
2023-04-18T02:28:19.235Z,53.50
2023-04-18T02:30:45.688Z,53.30
2023-04-18T02:33:12.172Z,53.80
2023-04-18T02:35:38.665Z,53.40
2023-04-18T02:38:05.175Z,53.40
2023-04-18T02:40:31.637Z,53.20
2023-04-18T02:42:58.104Z,53.50
2023-04-18T02:45:24.601Z,53.20
2023-04-18T02:47:55.146Z,53.10
2023-04-18T02:50:22.297Z,53.40
2023-04-18T02:52:48.799Z,53.20
2023-04-18T02:55:15.282Z,53.40
2023-04-18T02:57:41.799Z,53.10
2023-04-18T03:00:08.268Z,53.70
2023-04-18T03:02:34.909Z,53.20
2023-04-18T03:05:01.574Z,53.30
2023-04-18T03:07:28.112Z,53.50
2023-04-18T03:09:54.577Z,53.10
2023-04-18T03:12:21.055Z,53.40
2023-04-18T03:14:47.544Z,53.40
2023-04-18T03:17:14.008Z,53.40
2023-04-18T03:19:40.475Z,53.10
2023-04-18T03:22:06.944Z,53.30
2023-04-18T03:24:33.427Z,53.30
2023-04-18T03:26:59.920Z,53.10
2023-04-18T03:29:26.426Z,53.10
2023-04-18T03:31:52.914Z,53.10
2023-04-18T03:34:19.387Z,53.10
2023-04-18T03:36:47.864Z,53.00
2023-04-18T03:39:14.749Z,52.90
2023-04-18T03:41:41.223Z,53.00
2023-04-18T03:44:07.725Z,53.20
2023-04-18T03:46:34.249Z,53.10
2023-04-18T03:49:00.799Z,53.10
2023-04-18T03:51:27.254Z,52.90
2023-04-18T03:53:53.723Z,53.00
2023-04-18T03:56:20.195Z,53.10
2023-04-18T03:58:51.131Z,53.10
2023-04-18T04:01:17.611Z,53.10
2023-04-18T04:03:44.246Z,52.70
2023-04-18T04:06:10.818Z,52.80
2023-04-18T04:08:37.310Z,52.90
2023-04-18T04:11:03.789Z,52.80
2023-04-18T04:13:30.283Z,52.60
2023-04-18T04:15:56.825Z,52.60
2023-04-18T04:18:27.152Z,52.80
2023-04-18T04:20:53.605Z,52.70
2023-04-18T04:23:20.061Z,52.70
2023-04-18T04:25:46.530Z,52.70
2023-04-18T04:28:12.999Z,52.80
2023-04-18T04:30:39.477Z,52.80
2023-04-18T04:33:05.999Z,52.60
2023-04-18T04:35:32.512Z,52.70
2023-04-18T04:37:58.957Z,52.90
2023-04-18T04:40:25.489Z,52.70
2023-04-18T04:42:51.955Z,52.60
2023-04-18T04:45:18.425Z,52.80
2023-04-18T04:47:44.908Z,52.80
2023-04-18T04:50:11.448Z,52.60
2023-04-18T04:52:37.925Z,52.60
2023-04-18T04:55:04.473Z,52.70
2023-04-18T04:57:30.949Z,52.70
2023-04-18T04:59:57.417Z,52.80
2023-04-18T05:02:24.090Z,52.70
2023-04-18T05:04:50.674Z,52.90
2023-04-18T05:07:17.153Z,53.00
2023-04-18T05:09:43.701Z,52.80
2023-04-18T05:12:10.221Z,52.60
2023-04-18T05:14:36.684Z,52.70
2023-04-18T05:17:03.234Z,52.80
2023-04-18T05:19:33.174Z,52.80
2023-04-18T05:21:59.645Z,52.60
2023-04-18T05:24:26.129Z,52.80
2023-04-18T05:26:52.596Z,53.00
2023-04-18T05:29:19.074Z,52.90
2023-04-18T05:31:45.542Z,52.90
2023-04-18T05:34:12.424Z,52.80
2023-04-18T05:36:38.978Z,53.00
2023-04-18T05:39:05.486Z,52.80
2023-04-18T05:41:31.982Z,52.70
2023-04-18T05:44:05.229Z,52.60
2023-04-18T05:46:32.346Z,52.50
2023-04-18T05:48:58.870Z,52.60
2023-04-18T05:51:25.335Z,52.60
2023-04-18T05:53:51.807Z,52.60
2023-04-18T05:56:18.299Z,52.60
2023-04-18T05:58:44.782Z,52.70
2023-04-18T06:01:11.257Z,52.60
2023-04-18T06:03:37.963Z,52.70
2023-04-18T06:06:04.688Z,52.70
2023-04-18T06:08:31.146Z,52.80
2023-04-18T06:10:57.635Z,53.00
2023-04-18T06:13:24.122Z,53.00
2023-04-18T06:15:50.695Z,52.80
2023-04-18T06:18:17.222Z,52.70
2023-04-18T06:20:43.748Z,52.80
2023-04-18T06:23:10.256Z,52.70
2023-04-18T06:25:36.760Z,52.90
2023-04-18T06:28:03.219Z,52.70
2023-04-18T06:30:29.708Z,52.80
2023-04-18T06:32:56.285Z,52.60
2023-04-18T06:35:24.581Z,52.80
2023-04-18T06:37:52.391Z,52.90
2023-04-18T06:40:19.604Z,52.70
2023-04-18T06:42:46.074Z,52.90
2023-04-18T06:45:12.567Z,52.80
2023-04-18T06:47:39.041Z,52.80
2023-04-18T06:50:05.577Z,52.70
2023-04-18T06:52:32.063Z,52.80
2023-04-18T06:54:58.550Z,52.90
2023-04-18T06:57:25.009Z,53.10
2023-04-18T06:59:51.465Z,53.00
2023-04-18T07:02:18.037Z,52.90
2023-04-18T07:04:44.682Z,52.90
2023-04-18T07:07:11.274Z,53.00
2023-04-18T07:09:37.761Z,53.00
2023-04-18T07:12:04.242Z,53.10
2023-04-18T07:14:32.894Z,53.10
2023-04-18T07:17:03.347Z,53.00
2023-04-18T07:19:29.862Z,53.00
2023-04-18T07:21:56.317Z,53.10
2023-04-18T07:24:22.800Z,53.10
2023-04-18T07:26:49.282Z,53.10
2023-04-18T07:29:15.735Z,53.10
2023-04-18T07:31:42.220Z,53.00
2023-04-18T07:34:08.688Z,53.00
2023-04-18T07:36:35.161Z,53.10
2023-04-18T07:39:01.669Z,53.10
2023-04-18T07:41:28.174Z,53.10
2023-04-18T07:43:54.658Z,53.00
2023-04-18T07:46:21.226Z,53.10
2023-04-18T07:48:47.717Z,53.10
2023-04-18T07:51:14.196Z,53.10
2023-04-18T07:53:40.649Z,53.10
2023-04-18T07:56:07.112Z,53.30
2023-04-18T07:58:33.604Z,53.40
2023-04-18T08:01:00.106Z,53.40
2023-04-18T08:03:26.784Z,53.50
2023-04-18T08:05:53.386Z,53.60
2023-04-18T08:08:19.913Z,53.50
2023-04-18T08:10:46.442Z,54.00
2023-04-18T08:13:12.929Z,53.20
2023-04-18T08:15:39.429Z,53.40
2023-04-18T08:18:05.896Z,53.20
2023-04-18T08:20:32.398Z,53.20
2023-04-18T08:23:07.313Z,53.10
2023-04-18T08:25:34.270Z,53.20
2023-04-18T08:28:00.731Z,53.30
2023-04-18T08:30:27.214Z,53.50
2023-04-18T08:32:53.751Z,53.40
2023-04-18T08:35:20.289Z,53.40
2023-04-18T08:37:46.747Z,53.20
2023-04-18T08:40:13.202Z,53.10
2023-04-18T08:42:39.680Z,53.30
2023-04-18T08:45:06.149Z,53.20
2023-04-18T08:47:32.638Z,53.20
2023-04-18T08:49:59.110Z,53.40
2023-04-18T08:52:25.563Z,53.20
2023-04-18T08:54:52.044Z,53.20
2023-04-18T08:57:18.516Z,53.40
2023-04-18T08:59:45.953Z,53.40
2023-04-18T09:02:13.677Z,53.40
2023-04-18T09:04:40.200Z,53.30
2023-04-18T09:07:06.666Z,53.40
2023-04-18T09:09:33.135Z,53.40
2023-04-18T09:11:59.621Z,53.40
2023-04-18T09:14:26.138Z,53.20
2023-04-18T09:16:52.674Z,53.20
2023-04-18T09:19:19.221Z,53.30
2023-04-18T09:21:45.753Z,53.30
2023-04-18T09:24:12.412Z,53.40
2023-04-18T09:26:38.957Z,53.50
2023-04-18T09:29:05.434Z,53.50
2023-04-18T09:31:32.021Z,53.60
2023-04-18T09:33:58.558Z,53.70
2023-04-18T09:36:25.120Z,53.70
2023-04-18T09:38:53.717Z,53.70
2023-04-18T09:41:21.982Z,53.60
2023-04-18T09:43:48.469Z,53.70
2023-04-18T09:46:15.020Z,53.50
2023-04-18T09:48:41.515Z,53.60
2023-04-18T09:51:08.010Z,53.60
2023-04-18T09:53:34.506Z,53.70
2023-04-18T09:56:00.975Z,53.70
2023-04-18T09:58:27.701Z,53.80
2023-04-18T10:00:54.190Z,53.80
2023-04-18T10:03:20.811Z,53.70
2023-04-18T10:05:47.575Z,53.80
2023-04-18T10:08:14.131Z,53.80
2023-04-18T10:10:40.643Z,53.80
2023-04-18T10:13:07.141Z,53.80
2023-04-18T10:15:33.679Z,53.90
2023-04-18T10:18:05.414Z,53.90
2023-04-18T10:20:32.423Z,54.00
2023-04-18T10:22:58.894Z,53.90
2023-04-18T10:25:25.357Z,53.90
2023-04-18T10:27:51.842Z,53.90
2023-04-18T10:30:18.324Z,53.90
2023-04-18T10:32:44.846Z,53.90
2023-04-18T10:35:11.341Z,53.90
2023-04-18T10:37:37.852Z,53.90
2023-04-18T10:40:04.308Z,53.90
2023-04-18T10:42:30.830Z,54.00
2023-04-18T10:44:57.435Z,54.10
2023-04-18T10:47:24.031Z,54.30
2023-04-18T10:49:50.568Z,54.40
2023-04-18T10:52:17.040Z,54.30
2023-04-18T10:54:43.509Z,54.30
2023-04-18T10:57:10.014Z,54.30
2023-04-18T10:59:36.492Z,54.40
2023-04-18T11:02:03.011Z,54.40
2023-04-18T11:04:29.558Z,54.60
2023-04-18T11:06:57.462Z,54.30
2023-04-18T11:09:23.929Z,54.40
2023-04-18T11:11:50.437Z,54.30
2023-04-18T11:14:17.174Z,54.50
2023-04-18T11:16:43.801Z,54.60
2023-04-18T11:19:10.263Z,54.50
2023-04-18T11:21:36.771Z,54.50
2023-04-18T11:24:03.246Z,54.60
2023-04-18T11:26:29.725Z,54.60
2023-04-18T11:28:56.211Z,54.60
2023-04-18T11:31:22.774Z,54.70
2023-04-18T11:33:49.308Z,54.60
2023-04-18T11:36:15.788Z,54.70
2023-04-18T11:38:42.257Z,54.70
2023-04-18T11:41:08.732Z,54.70
2023-04-18T11:43:35.224Z,54.70
2023-04-18T11:46:01.919Z,54.80
2023-04-18T11:48:28.507Z,54.90
2023-04-18T11:50:54.984Z,54.80
2023-04-18T11:53:21.460Z,54.80
2023-04-18T11:55:47.938Z,54.90
2023-04-18T11:58:14.401Z,54.80
2023-04-18T12:00:40.872Z,54.80
2023-04-18T12:03:07.401Z,54.70
2023-04-18T12:05:34.083Z,54.70
2023-04-18T12:08:00.681Z,54.80
2023-04-18T12:10:27.138Z,54.70
2023-04-18T12:12:53.623Z,54.70
2023-04-18T12:15:20.100Z,54.90
2023-04-18T12:17:46.882Z,55.00
2023-04-18T12:20:13.461Z,54.60
2023-04-18T12:22:39.961Z,54.60
2023-04-18T12:25:06.442Z,54.60
2023-04-18T12:27:32.938Z,54.50
2023-04-18T12:29:59.410Z,54.60
2023-04-18T12:32:25.881Z,54.50
2023-04-18T12:34:52.363Z,54.60
2023-04-18T12:37:18.842Z,54.50
2023-04-18T12:39:45.310Z,54.70
2023-04-18T12:42:11.787Z,54.60
2023-04-18T12:44:38.255Z,54.60
2023-04-18T12:47:04.804Z,54.70
2023-04-18T12:49:31.334Z,54.60
2023-04-18T12:51:57.800Z,54.60
2023-04-18T12:54:24.274Z,54.60
2023-04-18T12:56:50.857Z,54.50
2023-04-18T12:59:17.386Z,54.60
2023-04-18T13:01:43.879Z,54.60
2023-04-18T13:07:01.633Z,54.80
2023-04-18T13:09:28.089Z,54.70
2023-04-18T13:11:57.531Z,54.70
2023-04-18T13:14:24.049Z,54.80
2023-04-18T13:16:50.559Z,54.80
2023-04-18T13:19:17.067Z,54.90
2023-04-18T13:21:43.546Z,55.00
2023-04-18T13:24:10.035Z,54.80
2023-04-18T13:26:36.536Z,54.90
2023-04-18T13:29:03.033Z,54.90
2023-04-18T13:31:29.524Z,54.70
2023-04-18T13:33:56.060Z,54.80
2023-04-18T13:36:22.595Z,54.70
2023-04-18T13:38:49.524Z,54.60
2023-04-18T13:41:15.985Z,54.80
2023-04-18T13:43:42.479Z,54.90
2023-04-18T13:46:09.017Z,54.80
2023-04-18T13:48:35.563Z,54.90
2023-04-18T13:51:02.032Z,55.10
2023-04-18T13:53:30.204Z,55.00
2023-04-18T13:55:57.450Z,55.10
2023-04-18T13:58:23.922Z,55.10
2023-04-18T14:00:50.404Z,55.10
2023-04-18T14:03:21.724Z,55.20
2023-04-18T14:05:51.064Z,55.30
2023-04-18T14:08:17.542Z,55.20
2023-04-18T14:10:44.010Z,55.20
2023-04-18T14:13:10.475Z,55.20
2023-04-18T14:15:36.992Z,55.10
2023-04-18T14:18:03.613Z,55.30
2023-04-18T14:20:30.175Z,55.20
2023-04-18T14:22:56.679Z,55.20
2023-04-18T14:25:23.193Z,55.20
2023-04-18T14:27:49.711Z,55.10
2023-04-18T14:30:21.652Z,55.30
2023-04-18T14:32:48.317Z,55.20
2023-04-18T14:35:14.834Z,55.30
2023-04-18T14:37:41.315Z,55.20
2023-04-18T14:40:07.775Z,55.20
2023-04-18T14:42:34.259Z,55.20
2023-04-18T14:45:00.748Z,55.20
2023-04-18T14:47:27.275Z,55.20
2023-04-18T14:49:53.771Z,55.20
2023-04-18T14:52:20.227Z,55.20
2023-04-18T14:54:46.702Z,55.30
2023-04-18T14:57:13.217Z,55.30
2023-04-18T14:59:39.687Z,55.20
2023-04-18T15:02:06.325Z,55.30
2023-04-18T15:04:32.927Z,55.30
2023-04-18T15:06:59.454Z,55.20
2023-04-18T15:09:25.945Z,55.20
2023-04-18T15:11:52.427Z,55.30
2023-04-18T15:14:18.909Z,55.30
2023-04-18T15:16:45.420Z,55.40
2023-04-18T15:19:11.951Z,55.20
2023-04-18T15:21:38.430Z,55.40
2023-04-18T15:24:04.914Z,55.10
2023-04-18T15:26:33.152Z,55.20
2023-04-18T15:29:03.685Z,55.10
2023-04-18T15:31:30.214Z,55.10
2023-04-18T15:33:56.698Z,55.20
2023-04-18T15:36:23.175Z,55.20
2023-04-18T15:38:49.653Z,55.20
2023-04-18T15:41:16.108Z,55.10
2023-04-18T15:43:42.593Z,55.20
2023-04-18T15:46:09.158Z,55.20
2023-04-18T15:48:35.645Z,55.20
2023-04-18T15:51:02.130Z,54.90
2023-04-18T15:53:28.643Z,54.90
2023-04-18T15:55:55.114Z,54.90
2023-04-18T15:58:21.587Z,54.90
2023-04-18T16:00:48.054Z,54.90
2023-04-18T16:03:14.763Z,54.90
2023-04-18T16:05:41.363Z,54.90
2023-04-18T16:08:07.844Z,54.90
2023-04-18T16:10:34.337Z,54.80
2023-04-18T16:13:00.836Z,54.90
2023-04-18T16:15:27.298Z,54.90
2023-04-18T16:17:53.901Z,54.80
2023-04-18T16:20:20.402Z,54.80
2023-04-18T16:22:46.882Z,54.90
2023-04-18T16:25:13.363Z,54.80
2023-04-18T16:27:39.848Z,54.80
2023-04-18T16:30:06.324Z,54.80
2023-04-18T16:32:32.810Z,54.80
2023-04-18T16:34:59.324Z,54.80
2023-04-18T16:37:25.814Z,54.90
2023-04-18T16:39:52.283Z,55.00
2023-04-18T16:42:18.773Z,54.80
2023-04-18T16:44:45.229Z,54.80
2023-04-18T16:47:11.689Z,54.80
2023-04-18T16:49:38.179Z,54.90
2023-04-18T16:52:04.676Z,54.80
2023-04-18T16:54:31.174Z,54.90
2023-04-18T16:56:57.667Z,54.90
2023-04-18T16:59:24.139Z,55.00
2023-04-18T17:01:50.734Z,55.00
2023-04-18T17:04:17.556Z,55.00
2023-04-18T17:06:44.193Z,55.00
2023-04-18T17:09:10.660Z,54.90
2023-04-18T17:11:39.421Z,55.00
2023-04-18T17:14:06.266Z,55.00
2023-04-18T17:16:32.818Z,55.00
2023-04-18T17:18:59.294Z,54.90
2023-04-18T17:21:25.767Z,55.00
2023-04-18T17:23:52.276Z,54.90
2023-04-18T17:26:18.740Z,55.10
2023-04-18T17:28:45.215Z,55.10
2023-04-18T17:31:11.758Z,55.10
2023-04-18T17:33:38.276Z,54.90
2023-04-18T17:36:06.098Z,54.90
2023-04-18T17:38:32.791Z,55.20
2023-04-18T17:40:59.267Z,55.10
2023-04-18T17:43:25.751Z,55.20
2023-04-18T17:45:52.286Z,55.20
2023-04-18T17:48:18.762Z,55.20
2023-04-18T17:50:45.233Z,55.30
2023-04-18T17:53:11.690Z,55.30
2023-04-18T17:55:38.215Z,55.30
2023-04-18T17:58:04.681Z,55.30
2023-04-18T18:00:31.151Z,55.30
2023-04-18T18:02:57.708Z,55.30
2023-04-18T18:05:24.247Z,55.30
2023-04-18T18:07:50.709Z,55.30
2023-04-18T18:10:17.760Z,55.30
2023-04-18T18:12:44.226Z,55.30
2023-04-18T18:15:10.697Z,55.40
2023-04-18T18:17:37.216Z,55.40
2023-04-18T18:20:03.737Z,55.40
2023-04-18T18:22:30.208Z,55.30
2023-04-18T18:24:56.677Z,55.40
2023-04-18T18:27:23.150Z,55.50
2023-04-18T18:29:49.633Z,55.50
2023-04-18T18:32:16.080Z,55.50
2023-04-18T18:34:42.547Z,55.50
2023-04-18T18:37:10.126Z,55.50
2023-04-18T18:39:36.621Z,55.50
2023-04-18T18:42:03.109Z,55.60
2023-04-18T18:44:29.599Z,55.60
2023-04-18T18:46:56.141Z,55.60
2023-04-18T18:49:22.633Z,55.60
2023-04-18T18:51:49.106Z,55.70
2023-04-18T18:54:15.597Z,55.60
2023-04-18T18:56:42.057Z,55.70
2023-04-18T18:59:08.528Z,55.70
2023-04-18T19:01:35.053Z,55.80
2023-04-18T19:04:01.712Z,55.70
2023-04-18T19:06:28.389Z,55.70
2023-04-18T19:08:54.873Z,55.80
2023-04-18T19:11:21.407Z,55.80
2023-04-18T19:13:47.864Z,55.90
2023-04-18T19:16:14.372Z,55.80
2023-04-18T19:18:40.903Z,55.80
2023-04-18T19:21:07.383Z,55.90
2023-04-18T19:23:33.839Z,55.90
2023-04-18T19:26:00.304Z,55.90
2023-04-18T19:28:26.812Z,56.00
2023-04-18T19:30:53.295Z,56.00
2023-04-18T19:33:19.760Z,56.00
2023-04-18T19:35:46.218Z,56.00
2023-04-18T19:38:12.684Z,56.00
2023-04-18T19:40:39.163Z,56.00
2023-04-18T19:43:05.650Z,56.00
2023-04-18T19:45:32.251Z,56.10
2023-04-18T19:47:58.842Z,56.40
2023-04-18T19:50:25.335Z,56.20
2023-04-18T19:52:51.808Z,56.20
2023-04-18T19:55:18.281Z,56.20
2023-04-18T19:57:44.753Z,56.20
2023-04-18T20:00:11.231Z,56.10
2023-04-18T20:02:37.841Z,56.10
2023-04-18T20:05:04.591Z,56.10
2023-04-18T20:07:31.231Z,56.10
2023-04-18T20:09:57.716Z,56.10
2023-04-18T20:12:24.185Z,56.20
2023-04-18T20:14:50.641Z,56.10
2023-04-18T20:17:17.106Z,56.10
2023-04-18T20:19:43.576Z,56.20
2023-04-18T20:22:10.057Z,56.20
2023-04-18T20:24:36.520Z,56.10
2023-04-18T20:27:02.995Z,56.10
2023-04-18T20:29:29.467Z,56.10
2023-04-18T20:31:55.941Z,56.20
2023-04-18T20:34:22.396Z,56.20
2023-04-18T20:36:48.870Z,56.30
2023-04-18T20:39:15.450Z,56.30
2023-04-18T20:41:42.124Z,56.30
2023-04-18T20:44:08.572Z,56.10
2023-04-18T20:46:35.168Z,56.30
2023-04-18T20:49:01.776Z,56.20
2023-04-18T20:51:28.265Z,56.10
2023-04-18T20:53:54.753Z,56.20
2023-04-18T20:56:21.226Z,56.20
2023-04-18T20:58:47.678Z,56.20
2023-04-18T21:01:14.160Z,56.20
2023-04-18T21:03:40.888Z,56.20
2023-04-18T21:06:07.495Z,56.10
2023-04-18T21:08:33.947Z,56.10
2023-04-18T21:11:00.422Z,56.20
2023-04-18T21:13:26.892Z,56.20
2023-04-18T21:15:53.431Z,56.20
2023-04-18T21:18:19.921Z,56.20
2023-04-18T21:20:46.391Z,56.30
2023-04-18T21:23:12.855Z,56.30
2023-04-18T21:25:39.338Z,56.00
2023-04-18T21:28:05.801Z,56.10
2023-04-18T21:30:32.294Z,56.20
2023-04-18T21:32:58.829Z,56.30
2023-04-18T21:35:25.337Z,56.20
2023-04-18T21:37:51.804Z,56.00
2023-04-18T21:40:18.274Z,56.10
2023-04-18T21:42:44.754Z,56.10
2023-04-18T21:45:11.244Z,56.10
2023-04-18T21:47:37.740Z,56.10
2023-04-18T21:50:04.320Z,56.10
2023-04-18T21:52:30.795Z,56.00
2023-04-18T21:54:57.249Z,56.00
2023-04-18T21:57:23.740Z,56.10
2023-04-18T21:59:50.214Z,55.90
2023-04-18T22:02:16.792Z,55.90
2023-04-18T22:04:43.348Z,56.00
2023-04-18T22:07:09.843Z,56.10
2023-04-18T22:09:36.309Z,56.10
2023-04-18T22:12:02.787Z,55.90
2023-04-18T22:14:29.267Z,55.90
2023-04-18T22:16:55.856Z,56.20
2023-04-18T22:19:22.391Z,56.00
2023-04-18T22:21:48.901Z,56.10
2023-04-18T22:24:15.704Z,56.10
2023-04-18T22:26:42.369Z,55.90
2023-04-18T22:29:08.829Z,56.10
2023-04-18T22:31:35.301Z,56.00
2023-04-18T22:34:01.751Z,55.80
2023-04-18T22:36:28.224Z,56.00
2023-04-18T22:38:54.703Z,55.80
2023-04-18T22:41:21.184Z,55.90
2023-04-18T22:43:47.631Z,55.90
2023-04-18T22:46:14.226Z,56.10
2023-04-18T22:48:40.751Z,55.90
2023-04-18T22:51:07.217Z,55.80
2023-04-18T22:53:33.820Z,55.90
2023-04-18T22:56:00.292Z,56.10
2023-04-18T22:58:26.776Z,56.00
2023-04-18T23:00:53.259Z,56.00
2023-04-18T23:03:19.800Z,56.10
2023-04-18T23:05:46.389Z,56.10
2023-04-18T23:08:12.870Z,55.90
2023-04-18T23:10:39.354Z,55.70
2023-04-18T23:13:05.839Z,55.80
2023-04-18T23:15:32.426Z,56.00
2023-04-18T23:17:58.999Z,55.90
2023-04-18T23:20:25.525Z,55.80
2023-04-18T23:22:52.054Z,55.70
2023-04-18T23:25:18.517Z,56.00
2023-04-18T23:27:44.990Z,56.00
2023-04-18T23:30:11.448Z,56.00
2023-04-18T23:32:37.966Z,56.10
2023-04-18T23:35:04.483Z,55.90
2023-04-18T23:37:30.961Z,56.00
2023-04-18T23:39:57.423Z,55.90
2023-04-18T23:42:23.924Z,55.80
2023-04-18T23:44:50.416Z,55.90
2023-04-18T23:47:17.090Z,56.00
2023-04-18T23:49:43.661Z,56.10
2023-04-18T23:52:10.131Z,55.90
2023-04-18T23:54:36.594Z,55.90
2023-04-18T23:57:03.038Z,56.00
2023-04-18T23:59:29.507Z,56.10
